Time;durP1;ratioP1;P1;durP2;ratioP2;P2;SDS_P1;SDS_P2;PMS_P1;PMS_P2;Temp;Humidity;BMP_temperature;BMP_pressure;BME280_temperature;BME280_humidity;BME280_pressure;Samples;Min_cycle;Max_cycle;Signal;HPM_P1;HPM_P2
2023/12/23 00:02:18;;;;;;;4.18;1.70;;;;;;;3.34;nan;98784.16;5038083;28;20033;-66
2023/12/23 00:04:43;;;;;;;3.83;1.65;;;;;;;3.31;nan;98783.81;5040503;28;20422;-67
2023/12/23 00:07:12;;;;;;;2.80;1.60;;;;;;;3.22;nan;98778.09;5035524;28;20437;-66
2023/12/23 00:09:38;;;;;;;4.95;2.15;;;;;;;3.18;nan;98782.97;5036023;28;20025;-66
2023/12/23 00:12:03;;;;;;;6.97;2.25;;;;;;;3.24;nan;98777.91;5037486;28;20552;-67
2023/12/23 00:14:29;;;;;;;7.20;2.25;;;;;;;3.22;nan;98790.31;5039918;28;20025;-66
2023/12/23 00:16:54;;;;;;;4.65;1.83;;;;;;;3.12;nan;98768.19;5037109;28;20378;-67
2023/12/23 00:19:22;;;;;;;4.18;1.80;;;;;;;3.14;nan;98771.38;5040059;28;20021;-66
2023/12/23 00:21:47;;;;;;;7.65;2.33;;;;;;;3.08;nan;98776.66;5040699;28;20420;-66
2023/12/23 00:24:12;;;;;;;2.88;1.95;;;;;;;3.09;nan;98784.25;5021121;28;20168;-66
2023/12/23 00:26:38;;;;;;;4.18;1.42;;;;;;;3.10;nan;98782.44;5037013;28;20024;-66
2023/12/23 00:29:03;;;;;;;3.30;1.50;;;;;;;2.99;nan;98781.31;5023996;28;20070;-66
2023/12/23 00:31:29;;;;;;;2.58;1.50;;;;;;;3.00;nan;98798.53;5021870;28;20029;-66
2023/12/23 00:33:54;;;;;;;3.38;1.52;;;;;;;2.96;nan;98790.34;5038806;28;20036;-67
2023/12/23 00:36:20;;;;;;;3.83;1.52;;;;;;;3.05;nan;98816.09;5036216;28;20028;-68
2023/12/23 00:38:45;;;;;;;3.17;1.63;;;;;;;2.98;nan;98821.34;5029276;28;20044;-65
2023/12/23 00:41:11;;;;;;;3.15;1.58;;;;;;;3.01;nan;98831.31;5040844;28;20037;-67
2023/12/23 00:43:37;;;;;;;2.97;1.20;;;;;;;3.02;nan;98830.31;5043263;28;20021;-67
2023/12/23 00:46:02;;;;;;;4.80;1.25;;;;;;;3.04;nan;98815.31;5044676;28;20108;-67
2023/12/23 00:48:28;;;;;;;2.75;1.40;;;;;;;3.06;nan;98823.66;5044310;28;20020;-67
2023/12/23 00:50:53;;;;;;;2.30;1.38;;;;;;;3.05;nan;98835.09;5047500;28;20423;-69
2023/12/23 00:53:18;;;;;;;3.40;1.38;;;;;;;2.85;nan;98798.06;5038260;28;20048;-66
2023/12/23 00:55:44;;;;;;;4.95;1.30;;;;;;;3.00;nan;98834.94;5036738;28;20036;-67
2023/12/23 00:58:09;;;;;;;4.78;1.90;;;;;;;2.96;nan;98833.75;5037550;28;20548;-66
2023/12/23 01:00:35;;;;;;;3.50;0.90;;;;;;;3.03;nan;98851.91;5039222;28;20116;-66
2023/12/23 01:03:00;;;;;;;4.03;1.27;;;;;;;2.94;nan;98841.75;5029111;28;20030;-66
2023/12/23 01:05:26;;;;;;;2.72;0.90;;;;;;;2.96;nan;98852.75;5037897;28;20159;-67
2023/12/23 01:07:51;;;;;;;1.80;1.20;;;;;;;2.94;nan;98862.56;5040785;28;20028;-66
2023/12/23 01:10:17;;;;;;;3.38;0.93;;;;;;;2.90;nan;98873.63;5037419;28;20105;-67
2023/12/23 01:12:42;;;;;;;2.38;1.10;;;;;;;2.96;nan;98885.75;5020767;28;20025;-67
2023/12/23 01:15:08;;;;;;;2.92;1.23;;;;;;;2.82;nan;98869.47;5038143;28;20031;-66
2023/12/23 01:17:33;;;;;;;5.15;1.80;;;;;;;2.85;nan;98892.47;5040652;28;20425;-66
2023/12/23 01:19:59;;;;;;;3.95;1.00;;;;;;;2.69;nan;98870.38;5040229;28;20025;-65
2023/12/23 01:22:24;;;;;;;1.90;0.90;;;;;;;2.70;nan;98861.56;5038128;28;20021;-65
2023/12/23 01:24:49;;;;;;;1.58;0.65;;;;;;;2.77;nan;98849.31;5036457;28;20744;-66
2023/12/23 01:27:15;;;;;;;1.80;0.90;;;;;;;2.75;nan;98851.34;5035895;28;20395;-66
2023/12/23 01:29:40;;;;;;;1.20;0.70;;;;;;;2.74;nan;98864.53;5033144;28;20029;-66
2023/12/23 01:32:06;;;;;;;4.53;1.10;;;;;;;2.57;nan;98866.88;5015569;28;20124;-67
2023/12/23 01:34:31;;;;;;;3.17;1.30;;;;;;;2.63;nan;98855.59;5038646;28;20021;-66
2023/12/23 01:36:57;;;;;;;2.72;0.90;;;;;;;2.54;nan;98829.09;5034962;28;20041;-66
2023/12/23 01:39:23;;;;;;;1.42;0.77;;;;;;;2.25;nan;98775.16;5036060;28;20021;-67
2023/12/23 01:41:49;;;;;;;1.88;0.80;;;;;;;2.60;nan;98816.28;5034204;28;20045;-65
2023/12/23 01:44:14;;;;;;;2.45;0.70;;;;;;;2.55;nan;98803.91;5036817;28;20029;-66
2023/12/23 01:46:40;;;;;;;1.90;0.70;;;;;;;2.62;nan;98815.06;5035193;28;20037;-67
2023/12/23 01:49:07;;;;;;;1.55;0.80;;;;;;;2.58;nan;98800.09;5035424;28;20029;-67
2023/12/23 01:51:32;;;;;;;2.47;0.95;;;;;;;2.60;nan;98792.88;5022487;28;20588;-65
2023/12/23 01:54:04;;;;;;;1.27;0.82;;;;;;;2.57;nan;98783.72;5036573;28;20036;-66
2023/12/23 01:56:31;;;;;;;2.28;1.20;;;;;;;2.50;nan;98788.16;5032811;28;20032;-67
2023/12/23 01:58:57;;;;;;;2.25;1.10;;;;;;;2.46;nan;98807.78;5025201;28;20029;-66
2023/12/23 02:01:23;;;;;;;2.97;1.23;;;;;;;2.38;nan;98821.03;5051301;28;20043;-66
2023/12/23 02:03:48;;;;;;;4.32;1.65;;;;;;;2.33;nan;98843.22;5037700;28;20037;-66
2023/12/23 02:06:14;;;;;;;2.80;1.30;;;;;;;2.25;nan;98833.09;5033800;28;20081;-66
2023/12/23 02:08:39;;;;;;;3.35;1.50;;;;;;;2.18;nan;98827.16;5049030;28;20028;-66
2023/12/23 02:11:05;;;;;;;3.55;1.67;;;;;;;2.13;nan;98835.56;5034569;28;20032;-66
2023/12/23 02:13:40;;;;;;;2.55;1.23;;;;;;;2.04;nan;98820.44;5034212;28;20036;-68
2023/12/23 02:16:06;;;;;;;1.27;0.70;;;;;;;2.01;nan;98836.41;5033076;28;20695;-66
2023/12/23 02:18:32;;;;;;;1.00;0.65;;;;;;;1.92;nan;98809.91;5018804;28;20030;-67
2023/12/23 02:20:57;;;;;;;2.03;0.65;;;;;;;1.85;nan;98794.38;5036056;28;20041;-66
2023/12/23 02:23:22;;;;;;;0.93;0.65;;;;;;;1.75;nan;98785.41;5037710;28;20028;-67
2023/12/23 02:25:53;;;;;;;1.27;0.63;;;;;;;1.65;nan;98786.69;5035990;28;20037;-66
2023/12/23 02:28:22;;;;;;;2.00;0.70;;;;;;;1.71;nan;98800.63;5055982;28;20025;-66
2023/12/23 02:30:50;;;;;;;2.28;0.70;;;;;;;1.65;nan;98793.66;5037882;28;20026;-65
2023/12/23 02:33:16;;;;;;;1.67;0.57;;;;;;;1.59;nan;98791.91;5040035;28;20120;-67
2023/12/23 02:35:42;;;;;;;2.15;0.50;;;;;;;1.55;nan;98804.47;5038114;28;20017;-67
2023/12/23 02:38:07;;;;;;;1.45;0.60;;;;;;;1.51;nan;98797.28;5039109;28;20028;-65
2023/12/23 02:40:34;;;;;;;3.95;1.27;;;;;;;1.61;nan;98803.66;5040571;28;20027;-66
2023/12/23 02:43:01;;;;;;;1.20;0.68;;;;;;;1.58;nan;98801.47;5054023;28;20045;-67
2023/12/23 02:45:27;;;;;;;2.60;0.90;;;;;;;1.53;nan;98800.50;5039686;28;20056;-66
2023/12/23 02:47:52;;;;;;;3.88;2.08;;;;;;;1.42;nan;98787.16;5056388;28;20052;-67
2023/12/23 02:50:18;;;;;;;1.92;0.75;;;;;;;1.38;nan;98770.41;5041412;28;20025;-67
2023/12/23 02:52:43;;;;;;;2.38;0.60;;;;;;;1.40;nan;98778.00;5024956;28;20502;-66
2023/12/23 02:55:09;;;;;;;1.60;0.47;;;;;;;1.36;nan;98794.97;5042106;28;20435;-66
2023/12/23 02:57:34;;;;;;;2.90;0.75;;;;;;;1.29;nan;98771.63;5038259;28;20438;-67
2023/12/23 03:00:00;;;;;;;1.35;0.60;;;;;;;1.32;nan;98766.06;5040274;28;20031;-66
2023/12/23 03:02:25;;;;;;;1.52;0.63;;;;;;;1.26;nan;98772.84;5038135;28;20076;-66
2023/12/23 03:04:50;;;;;;;1.45;0.60;;;;;;;1.21;nan;98764.09;5037598;28;20097;-67
2023/12/23 03:07:16;;;;;;;1.13;0.63;;;;;;;1.18;nan;98759.31;5039733;28;20036;-66
2023/12/23 03:09:42;;;;;;;1.92;0.65;;;;;;;1.26;nan;98764.28;5038752;28;20029;-65
2023/12/23 03:12:08;;;;;;;1.65;0.73;;;;;;;1.24;nan;98743.72;5038407;28;20033;-66
2023/12/23 03:14:33;;;;;;;0.77;0.50;;;;;;;1.18;nan;98738.59;5042742;28;20027;-65
2023/12/23 03:16:59;;;;;;;0.80;0.43;;;;;;;1.13;nan;98733.22;5031073;28;20032;-66
2023/12/23 03:19:24;;;;;;;1.10;0.50;;;;;;;1.17;nan;98730.00;5027236;28;20086;-67
2023/12/23 03:21:49;;;;;;;3.17;0.80;;;;;;;1.21;nan;98762.28;5040531;28;20053;-67
2023/12/23 03:24:16;;;;;;;1.60;1.08;;;;;;;1.21;nan;98751.91;5039098;28;20088;-67
2023/12/23 03:26:41;;;;;;;1.65;0.77;;;;;;;1.15;nan;98760.53;5043812;28;20073;-67
2023/12/23 03:29:06;;;;;;;1.75;0.52;;;;;;;1.21;nan;98764.09;5043001;28;20062;-65
2023/12/23 03:31:33;;;;;;;1.30;1.00;;;;;;;1.15;nan;98762.31;5046560;28;20029;-65
2023/12/23 03:34:02;;;;;;;1.60;0.70;;;;;;;1.21;nan;98783.03;5040171;28;20036;-66
2023/12/23 03:36:28;;;;;;;1.60;0.90;;;;;;;1.18;nan;98785.25;5043956;28;20064;-65
2023/12/23 03:38:55;;;;;;;3.15;1.00;;;;;;;1.26;nan;98800.56;5043156;28;20025;-66
2023/12/23 03:41:21;;;;;;;2.35;1.10;;;;;;;1.14;nan;98791.84;5047271;28;20155;-67
2023/12/23 03:43:46;;;;;;;1.73;0.88;;;;;;;1.28;nan;98816.72;5046421;28;20108;-66
2023/12/23 03:46:12;;;;;;;1.48;0.70;;;;;;;1.31;nan;98829.28;5039047;28;20025;-67
2023/12/23 03:48:37;;;;;;;1.90;1.10;;;;;;;1.28;nan;98838.25;5035070;28;20108;-67
2023/12/23 03:51:03;;;;;;;3.03;1.00;;;;;;;1.26;nan;98858.41;5038085;28;20025;-67
2023/12/23 03:53:28;;;;;;;1.45;0.80;;;;;;;1.26;nan;98868.00;5036845;28;20195;-67
2023/12/23 03:55:54;;;;;;;1.00;0.73;;;;;;;1.16;nan;98876.19;5035314;28;20041;-67
2023/12/23 03:58:19;;;;;;;1.40;0.85;;;;;;;1.20;nan;98890.34;5035884;28;20043;-67
2023/12/23 04:00:45;;;;;;;1.38;0.77;;;;;;;1.24;nan;98903.69;5037941;28;20021;-66
2023/12/23 04:03:11;;;;;;;1.73;0.90;;;;;;;1.26;nan;98897.31;5039019;28;20033;-68
2023/12/23 04:05:36;;;;;;;0.95;0.68;;;;;;;1.24;nan;98895.91;5039403;28;20074;-67
2023/12/23 04:08:02;;;;;;;0.90;0.60;;;;;;;1.31;nan;98904.47;5022428;28;20041;-68
2023/12/23 04:10:27;;;;;;;1.50;0.90;;;;;;;1.36;nan;98907.25;5040348;28;20069;-68
2023/12/23 04:12:53;;;;;;;2.35;1.13;;;;;;;1.26;nan;98896.50;5038875;28;20556;-67
2023/12/23 04:15:18;;;;;;;1.50;1.00;;;;;;;1.33;nan;98930.22;5039670;28;20029;-68
2023/12/23 04:17:44;;;;;;;3.55;1.40;;;;;;;1.35;nan;98930.81;5027320;28;20526;-66
2023/12/23 04:20:10;;;;;;;2.08;1.30;;;;;;;1.39;nan;98948.38;5025918;28;20480;-66
2023/12/23 04:22:35;;;;;;;2.72;0.90;;;;;;;1.26;nan;98941.38;5037397;28;20061;-68
2023/12/23 04:25:00;;;;;;;3.00;0.80;;;;;;;1.13;nan;98964.75;5037916;28;20122;-67
2023/12/23 04:27:26;;;;;;;1.85;0.95;;;;;;;1.13;nan;98974.31;5035500;28;20521;-68
2023/12/23 04:29:51;;;;;;;1.42;1.10;;;;;;;1.10;nan;98972.09;5035402;28;20112;-68
2023/12/23 04:32:17;;;;;;;2.38;1.08;;;;;;;0.99;nan;98961.31;5039353;28;20043;-67
2023/12/23 04:34:42;;;;;;;4.05;2.63;;;;;;;1.06;nan;98969.91;5039777;28;20107;-67
2023/12/23 04:37:07;;;;;;;2.90;1.90;;;;;;;1.09;nan;98973.91;5038746;28;20030;-68
2023/12/23 04:39:33;;;;;;;2.03;1.63;;;;;;;1.04;nan;98982.25;5036196;28;20140;-68
2023/12/23 04:41:58;;;;;;;2.03;1.45;;;;;;;0.92;nan;98991.63;5016461;28;20485;-66
2023/12/23 04:44:24;;;;;;;3.08;1.65;;;;;;;0.89;nan;98996.38;5037304;28;20036;-66
2023/12/23 04:46:50;;;;;;;2.13;1.40;;;;;;;0.74;nan;99002.56;5036381;28;20110;-66
2023/12/23 04:49:16;;;;;;;2.92;1.80;;;;;;;0.81;nan;99002.56;5020186;28;20029;-67
2023/12/23 04:51:44;;;;;;;2.42;1.98;;;;;;;0.87;nan;99027.69;5038749;28;20048;-67
2023/12/23 04:54:12;;;;;;;4.18;2.30;;;;;;;0.77;nan;99007.34;5038877;28;20025;-67
2023/12/23 04:56:39;;;;;;;4.85;3.47;;;;;;;0.84;nan;99020.31;5027891;28;20565;-68
2023/12/23 04:59:05;;;;;;;4.82;3.60;;;;;;;0.90;nan;99061.00;5037158;28;20025;-67
2023/12/23 05:01:30;;;;;;;3.95;3.08;;;;;;;0.93;nan;99065.78;5036940;28;20027;-68
2023/12/23 05:03:55;;;;;;;5.57;3.55;;;;;;;0.95;nan;99068.97;5039088;28;20083;-68
2023/12/23 05:06:21;;;;;;;4.72;3.30;;;;;;;0.97;nan;99072.19;5042424;28;20382;-66
2023/12/23 05:08:47;;;;;;;4.50;2.90;;;;;;;0.88;nan;99085.50;5041709;28;20128;-67
2023/12/23 05:11:12;;;;;;;5.38;2.20;;;;;;;0.93;nan;99107.25;5036392;28;20025;-67
2023/12/23 05:13:38;;;;;;;3.65;2.00;;;;;;;0.85;nan;99084.09;5034908;28;20029;-68
2023/12/23 05:16:04;;;;;;;3.38;2.08;;;;;;;0.92;nan;99087.50;5040944;28;20585;-67
2023/12/23 05:18:29;;;;;;;5.22;3.13;;;;;;;0.94;nan;99095.09;5026828;28;20111;-67
2023/12/23 05:20:55;;;;;;;3.83;2.47;;;;;;;0.88;nan;99098.47;5035043;28;20502;-67
2023/12/23 05:23:20;;;;;;;4.38;2.38;;;;;;;0.84;nan;99090.28;5036588;28;20090;-68
2023/12/23 05:25:45;;;;;;;4.57;2.05;;;;;;;0.89;nan;99100.03;5038350;28;20033;-67
2023/12/23 05:28:11;;;;;;;4.45;2.30;;;;;;;0.91;nan;99080.75;5034849;28;20025;-68
2023/12/23 05:30:36;;;;;;;4.30;2.35;;;;;;;0.81;nan;99091.47;5026714;28;20525;-66
2023/12/23 05:33:02;;;;;;;4.63;2.60;;;;;;;0.57;nan;99076.41;5039083;28;20038;-68
2023/12/23 05:35:27;;;;;;;4.32;2.60;;;;;;;0.74;nan;99108.78;5039825;28;20025;-67
2023/12/23 05:37:53;;;;;;;4.55;2.47;;;;;;;0.75;nan;99110.38;5038933;28;20100;-68
2023/12/23 05:40:18;;;;;;;5.45;3.63;;;;;;;0.73;nan;99107.16;5039078;28;20021;-64
2023/12/23 05:42:44;;;;;;;5.60;4.63;;;;;;;0.75;nan;99099.22;5039645;28;20037;-67
2023/12/23 05:45:09;;;;;;;7.32;5.18;;;;;;;0.82;nan;99107.81;5037323;28;20045;-66
2023/12/23 05:47:35;;;;;;;5.82;4.00;;;;;;;0.87;nan;99110.63;5025126;28;20620;-68
2023/12/23 05:50:00;;;;;;;5.07;3.58;;;;;;;0.88;nan;99083.69;5037860;28;20040;-68
2023/12/23 05:52:26;;;;;;;3.92;2.42;;;;;;;0.93;nan;99070.16;5036081;28;20046;-67
2023/12/23 05:54:51;;;;;;;3.17;2.15;;;;;;;0.99;nan;99097.91;5038332;28;20112;-69
2023/12/23 05:57:17;;;;;;;2.90;1.92;;;;;;;0.99;nan;99083.16;5037408;28;20399;-68
2023/12/23 05:59:42;;;;;;;3.88;2.20;;;;;;;1.04;nan;99085.94;5034544;28;20426;-68
2023/12/23 06:02:08;;;;;;;5.82;2.08;;;;;;;0.99;nan;99080.56;5041656;28;20034;-67
2023/12/23 06:04:33;;;;;;;3.67;1.88;;;;;;;1.09;nan;99095.75;5041590;28;20056;-68
2023/12/23 06:06:59;;;;;;;3.80;1.90;;;;;;;1.09;nan;99095.75;5040360;28;20037;-67
2023/12/23 06:09:25;;;;;;;4.43;1.88;;;;;;;1.14;nan;99115.91;5042003;28;20057;-67
2023/12/23 06:11:51;;;;;;;1.83;1.30;;;;;;;1.06;nan;99112.47;5041470;28;20028;-68
2023/12/23 06:14:16;;;;;;;5.35;2.33;;;;;;;1.06;nan;99133.22;5045790;28;20233;-67
2023/12/23 06:16:42;;;;;;;3.55;1.90;;;;;;;1.15;nan;99154.59;5043866;28;20112;-67
2023/12/23 06:19:07;;;;;;;3.75;2.38;;;;;;;1.13;nan;99156.59;5052190;28;20051;-68
2023/12/23 06:21:33;;;;;;;3.17;1.90;;;;;;;1.17;nan;99159.56;5053597;28;20548;-67
2023/12/23 06:23:58;;;;;;;3.28;1.80;;;;;;;1.15;nan;99153.78;5050924;28;20039;-69
2023/12/23 06:26:25;;;;;;;4.10;2.03;;;;;;;1.18;nan;99163.78;5054967;28;20024;-67
2023/12/23 06:28:50;;;;;;;5.32;2.05;;;;;;;1.08;nan;99158.13;5051427;28;20384;-69
2023/12/23 06:31:15;;;;;;;3.20;1.77;;;;;;;1.20;nan;99164.41;5039721;28;20029;-69
2023/12/23 06:33:41;;;;;;;3.08;1.50;;;;;;;1.21;nan;99155.59;5039227;28;20025;-68
2023/12/23 06:36:08;;;;;;;2.65;1.50;;;;;;;1.17;nan;99156.97;5045986;28;20024;-70
2023/12/23 06:38:34;;;;;;;2.05;1.33;;;;;;;1.24;nan;99165.59;5037854;28;20083;-69
2023/12/23 06:41:00;;;;;;;1.80;1.02;;;;;;;1.23;nan;99161.41;5041759;28;20025;-68
2023/12/23 06:43:25;;;;;;;1.65;1.08;;;;;;;1.26;nan;99171.38;5044080;28;20116;-69
2023/12/23 06:45:51;;;;;;;1.70;0.95;;;;;;;1.24;nan;99200.09;5029512;28;20025;-70
2023/12/23 06:48:16;;;;;;;2.90;1.63;;;;;;;1.30;nan;99195.16;5037273;28;20542;-70
2023/12/23 06:50:42;;;;;;;2.45;1.40;;;;;;;1.36;nan;99208.09;5039293;28;20379;-70
2023/12/23 06:53:08;;;;;;;4.53;1.70;;;;;;;1.27;nan;99176.38;5038232;28;20053;-70
2023/12/23 06:55:34;;;;;;;3.40;1.58;;;;;;;1.49;nan;99213.34;5044134;28;20026;-70
2023/12/23 06:58:00;;;;;;;2.83;1.40;;;;;;;1.50;nan;99203.78;5038643;28;20021;-70
2023/12/23 07:00:26;;;;;;;1.73;1.00;;;;;;;1.44;nan;99189.00;5037250;28;20025;-69
2023/12/23 07:02:52;;;;;;;2.38;1.23;;;;;;;1.54;nan;99196.41;5041245;28;20087;-70
2023/12/23 07:05:18;;;;;;;2.78;1.15;;;;;;;1.65;nan;99225.19;5030112;28;20033;-69
2023/12/23 07:07:44;;;;;;;2.50;1.30;;;;;;;1.74;nan;99227.59;5026782;28;20509;-70
2023/12/23 07:10:10;;;;;;;2.00;1.05;;;;;;;1.56;nan;99200.41;5038583;28;20032;-69
2023/12/23 07:12:36;;;;;;;1.70;1.15;;;;;;;1.80;nan;99230.22;5040802;28;20029;-69
2023/12/23 07:15:03;;;;;;;3.78;1.08;;;;;;;1.78;nan;99227.00;5039428;28;20473;-70
2023/12/23 07:17:28;;;;;;;2.63;1.17;;;;;;;1.85;nan;99253.00;5041042;28;20048;-70
2023/12/23 07:19:53;;;;;;;3.60;1.42;;;;;;;1.85;nan;99246.00;5043328;28;20858;-69
2023/12/23 07:22:19;;;;;;;3.55;1.20;;;;;;;1.89;nan;99267.97;5040106;28;20033;-71
2023/12/23 07:24:44;;;;;;;2.42;1.30;;;;;;;1.98;nan;99280.75;5027180;28;20041;-69
2023/12/23 07:27:10;;;;;;;3.33;1.48;;;;;;;2.00;nan;99284.75;5040831;28;20578;-70
2023/12/23 07:29:38;;;;;;;2.00;1.05;;;;;;;2.02;nan;99289.75;5042874;28;20037;-72
2023/12/23 07:32:04;;;;;;;2.60;1.20;;;;;;;2.02;nan;99287.16;5042375;28;20083;-71
2023/12/23 07:34:30;;;;;;;2.45;1.20;;;;;;;1.94;nan;99254.41;5046182;28;20624;-72
2023/12/23 07:36:55;;;;;;;3.03;1.10;;;;;;;2.05;nan;99233.03;5043648;28;20033;-69
2023/12/23 07:39:20;;;;;;;1.42;0.85;;;;;;;2.01;nan;99210.25;5043357;28;20087;-70
2023/12/23 07:41:46;;;;;;;4.57;1.88;;;;;;;2.15;nan;99276.78;5039950;28;20075;-70
2023/12/23 07:44:11;;;;;;;8.15;3.65;;;;;;;1.94;nan;99251.00;5036854;28;20025;-69
2023/12/23 07:46:37;;;;;;;3.53;1.60;;;;;;;2.15;nan;99294.19;5037403;28;20032;-68
2023/12/23 07:49:03;;;;;;;6.93;2.80;;;;;;;2.18;nan;99310.19;5038362;28;20053;-68
2023/12/23 07:51:28;;;;;;;3.05;1.60;;;;;;;2.10;nan;99282.56;5037245;28;20025;-67
2023/12/23 07:53:53;;;;;;;3.47;2.10;;;;;;;2.21;nan;99312.38;5040777;28;20493;-69
2023/12/23 07:56:19;;;;;;;3.83;1.90;;;;;;;2.21;nan;99317.56;5025605;28;20067;-71
2023/12/23 07:58:44;;;;;;;5.32;2.28;;;;;;;2.28;nan;99326.19;5039081;28;20067;-69
2023/12/23 08:01:10;;;;;;;2.30;1.40;;;;;;;2.08;nan;99297.56;5039932;28;20492;-70
2023/12/23 08:03:36;;;;;;;2.53;1.50;;;;;;;2.30;nan;99334.56;5023413;28;20025;-69
2023/12/23 08:06:02;;;;;;;3.28;1.42;;;;;;;2.23;nan;99336.34;5055681;28;20164;-68
2023/12/23 08:08:27;;;;;;;3.40;1.65;;;;;;;2.22;nan;99334.75;5036498;28;20100;-69
2023/12/23 08:10:54;;;;;;;4.53;1.80;;;;;;;2.36;nan;99345.97;5040949;28;20052;-69
2023/12/23 08:13:20;;;;;;;4.00;2.10;;;;;;;2.27;nan;99326.38;5040021;28;20037;-69
2023/12/23 08:15:46;;;;;;;3.75;1.30;;;;;;;2.34;nan;99330.56;5044414;28;20037;-69
2023/12/23 08:18:12;;;;;;;4.15;2.03;;;;;;;2.46;nan;99335.97;5038249;28;20036;-71
2023/12/23 08:20:37;;;;;;;2.47;1.50;;;;;;;2.43;nan;99322.59;5039396;28;20025;-69
2023/12/23 08:23:03;;;;;;;3.13;1.55;;;;;;;2.41;nan;99327.19;5039051;28;20049;-70
2023/12/23 08:25:28;;;;;;;5.57;2.05;;;;;;;2.51;nan;99332.78;5042331;28;20063;-70
2023/12/23 08:27:54;;;;;;;3.55;1.60;;;;;;;2.54;nan;99333.22;5043148;28;20032;-70
2023/12/23 08:30:19;;;;;;;4.43;2.40;;;;;;;2.62;nan;99331.41;5038179;28;20024;-70
2023/12/23 08:32:45;;;;;;;3.05;1.73;;;;;;;2.69;nan;99350.41;5038323;28;20028;-72
2023/12/23 08:35:11;;;;;;;2.83;1.85;;;;;;;2.75;nan;99366.03;5037366;28;20095;-69
2023/12/23 08:37:37;;;;;;;2.28;1.42;;;;;;;2.81;nan;99379.22;5053015;28;20063;-71
2023/12/23 08:40:03;;;;;;;2.70;1.50;;;;;;;2.81;nan;99368.81;5036441;28;20040;-72
2023/12/23 08:42:28;;;;;;;2.38;1.15;;;;;;;2.90;nan;99350.22;5045797;28;20032;-70
2023/12/23 08:44:54;;;;;;;2.22;1.30;;;;;;;2.89;nan;99342.63;5037629;28;20034;-71
2023/12/23 08:47:19;;;;;;;2.10;1.13;;;;;;;2.83;nan;99327.81;5027115;28;20033;-70
2023/12/23 08:49:44;;;;;;;4.13;1.50;;;;;;;2.91;nan;99351.81;5040154;28;20091;-70
2023/12/23 08:52:10;;;;;;;2.72;1.40;;;;;;;2.88;nan;99374.81;5038243;28;20490;-69
2023/12/23 08:54:35;;;;;;;4.13;1.63;;;;;;;2.88;nan;99364.41;5039037;28;20029;-71
2023/12/23 08:57:01;;;;;;;3.38;1.92;;;;;;;2.86;nan;99369.81;5040551;28;20025;-70
2023/12/23 08:59:26;;;;;;;2.80;1.70;;;;;;;2.91;nan;99356.22;5041949;28;20025;-70
2023/12/23 09:01:52;;;;;;;2.58;1.35;;;;;;;2.86;nan;99351.63;5045002;28;20033;-72
2023/12/23 09:04:20;;;;;;;2.85;1.60;;;;;;;2.96;nan;99359.00;5060603;28;20034;-68
2023/12/23 09:06:46;;;;;;;6.20;2.83;;;;;;;3.06;nan;99367.19;5051912;28;20067;-69
2023/12/23 09:09:11;;;;;;;6.63;2.28;;;;;;;3.09;nan;99372.03;5039500;28;20022;-69
2023/12/23 09:11:44;;;;;;;7.68;2.72;;;;;;;3.05;nan;99367.41;5035417;28;20024;-70
2023/12/23 09:14:10;;;;;;;7.60;2.80;;;;;;;3.31;nan;99397.81;5047534;28;20036;-69
2023/12/23 09:16:35;;;;;;;8.32;3.25;;;;;;;3.30;nan;99383.97;5045139;28;20022;-72
2023/12/23 09:19:01;;;;;;;6.03;2.72;;;;;;;3.37;nan;99387.38;5039736;28;20375;-73
2023/12/23 09:21:26;;;;;;;5.78;3.03;;;;;;;3.39;nan;99366.38;5035601;28;20037;-71
2023/12/23 09:23:52;;;;;;;6.53;3.13;;;;;;;3.47;nan;99394.78;5037986;28;20617;-71
2023/12/23 09:26:17;;;;;;;7.28;3.38;;;;;;;3.41;nan;99393.78;5036232;28;20119;-68
2023/12/23 09:28:42;;;;;;;4.25;2.15;;;;;;;3.56;nan;99403.97;5039759;28;20029;-70
2023/12/23 09:31:08;;;;;;;3.03;1.88;;;;;;;3.59;nan;99407.97;5026577;28;20024;-71
2023/12/23 09:33:33;;;;;;;2.95;1.10;;;;;;;3.47;nan;99401.78;5037302;28;20048;-70
2023/12/23 09:35:59;;;;;;;1.85;1.08;;;;;;;3.57;nan;99423.81;5016925;28;20051;-70
2023/12/23 09:38:24;;;;;;;2.15;1.10;;;;;;;3.58;nan;99416.78;5035659;28;20021;-71
2023/12/23 09:40:50;;;;;;;1.90;0.80;;;;;;;3.67;nan;99425.19;5024485;28;20462;-69
2023/12/23 09:43:17;;;;;;;2.72;1.27;;;;;;;3.79;nan;99428.75;5036626;28;20033;-70
2023/12/23 09:45:44;;;;;;;4.43;1.60;;;;;;;3.82;nan;99418.72;5042258;28;20025;-71
2023/12/23 09:48:10;;;;;;;3.72;1.63;;;;;;;3.97;nan;99447.13;5013844;28;20209;-70
2023/12/23 09:50:35;;;;;;;2.30;1.35;;;;;;;4.04;nan;99453.13;5036795;28;20033;-72
2023/12/23 09:53:01;;;;;;;1.92;1.00;;;;;;;4.04;nan;99458.31;5036194;28;20049;-70
2023/12/23 09:55:29;;;;;;;3.67;1.10;;;;;;;4.15;nan;99469.13;5042509;28;20056;-70
2023/12/23 09:57:54;;;;;;;5.65;1.30;;;;;;;4.35;nan;99456.81;5036320;28;20017;-70
2023/12/23 10:00:20;;;;;;;2.42;1.30;;;;;;;4.39;nan;99465.81;5037602;28;20633;-70
2023/12/23 10:02:46;;;;;;;2.97;1.40;;;;;;;4.50;nan;99476.59;5035668;28;20022;-70
2023/12/23 10:05:12;;;;;;;2.72;1.60;;;;;;;4.55;nan;99475.00;5037144;28;20021;-69
2023/12/23 10:07:38;;;;;;;5.30;1.90;;;;;;;4.55;nan;99477.59;5052052;28;20049;-67
2023/12/23 10:10:04;;;;;;;8.80;2.50;;;;;;;4.55;nan;99482.00;5042112;28;20033;-70
2023/12/23 10:12:30;;;;;;;6.47;2.55;;;;;;;4.56;nan;99478.38;5039569;28;20017;-69
2023/12/23 10:14:55;;;;;;;9.65;2.55;;;;;;;4.56;nan;99481.00;5025175;28;20035;-68
2023/12/23 10:17:21;;;;;;;5.60;2.60;;;;;;;4.43;nan;99482.66;5020285;28;20021;-69
2023/12/23 10:19:47;;;;;;;5.22;2.25;;;;;;;4.55;nan;99498.47;5020421;28;20059;-68
2023/12/23 10:22:16;;;;;;;3.45;1.67;;;;;;;4.40;nan;99477.06;5040180;28;20537;-71
2023/12/23 10:24:41;;;;;;;2.33;1.30;;;;;;;4.51;nan;99499.88;5037774;28;20031;-69
2023/12/23 10:27:07;;;;;;;4.28;1.52;;;;;;;4.48;nan;99506.28;5034671;28;20033;-68
2023/12/23 10:29:34;;;;;;;2.20;1.20;;;;;;;4.37;nan;99512.16;5036597;28;20540;-69
2023/12/23 10:32:07;;;;;;;2.35;1.13;;;;;;;4.26;nan;99505.78;5039028;28;20025;-68
2023/12/23 10:34:56;;;;;;;3.58;1.20;;;;;;;4.24;nan;99517.41;5037081;28;20475;-68
2023/12/23 10:37:23;;;;;;;;;;;;;;;4.19;nan;99512.00;5036952;28;20514;-69
2023/12/23 10:39:55;;;;;;;7.63;2.35;;;;;;;4.17;nan;99499.19;5024925;28;19920;-68
2023/12/23 10:42:23;;;;;;;6.47;2.38;;;;;;;4.12;nan;99500.78;5037920;28;20032;-70
2023/12/23 10:44:51;;;;;;;4.35;2.00;;;;;;;3.97;nan;99486.19;5039757;28;20039;-71
2023/12/23 10:47:17;;;;;;;2.08;1.00;;;;;;;4.05;nan;99512.03;5043173;28;20079;-71
2023/12/23 10:49:45;;;;;;;3.13;1.38;;;;;;;4.11;nan;99527.84;5047946;28;20032;-70
2023/12/23 10:52:13;;;;;;;3.08;1.45;;;;;;;3.86;nan;99492.06;5044915;28;20053;-73
2023/12/23 10:54:38;;;;;;;2.88;1.20;;;;;;;3.89;nan;99485.63;5041641;28;20024;-72
2023/12/23 10:57:05;;;;;;;3.47;1.67;;;;;;;3.99;nan;99497.22;5043343;28;20036;-70
2023/12/23 10:59:31;;;;;;;2.78;1.40;;;;;;;4.04;nan;99504.41;5027067;28;20044;-71
2023/12/23 11:01:57;;;;;;;2.25;1.48;;;;;;;4.08;nan;99499.63;5042348;28;20027;-69
2023/12/23 11:04:27;;;;;;;4.50;2.00;;;;;;;4.04;nan;99492.19;5042752;28;20020;-70
2023/12/23 11:06:55;;;;;;;3.45;1.77;;;;;;;4.14;nan;99490.97;5037207;28;20167;-71
2023/12/23 11:09:22;;;;;;;3.28;1.15;;;;;;;4.15;nan;99484.78;5044741;28;20054;-72
2023/12/23 11:11:49;;;;;;;2.40;1.60;;;;;;;4.10;nan;99477.56;5040657;28;20024;-70
2023/12/23 11:14:14;;;;;;;2.95;1.30;;;;;;;3.98;nan;99474.78;5042831;28;20017;-70
2023/12/23 11:16:42;;;;;;;3.05;1.70;;;;;;;4.12;nan;99480.78;5026009;28;20029;-72
2023/12/23 11:19:08;;;;;;;2.35;1.30;;;;;;;4.08;nan;99479.56;5043082;28;20110;-71
2023/12/23 11:21:36;;;;;;;2.00;1.10;;;;;;;4.10;nan;99480.16;5021283;28;20478;-72
2023/12/23 11:24:04;;;;;;;2.65;1.27;;;;;;;4.13;nan;99489.38;5045768;28;20075;-71
2023/12/23 11:26:39;;;;;;;7.18;1.83;;;;;;;4.15;nan;99500.41;5039727;28;20040;-71
2023/12/23 11:29:06;;;;;;;3.35;1.35;;;;;;;4.07;nan;99500.59;5039963;28;20033;-71
2023/12/23 11:31:32;;;;;;;2.50;1.40;;;;;;;4.09;nan;99498.59;5038020;28;20022;-71
2023/12/23 11:34:00;;;;;;;4.45;1.75;;;;;;;4.13;nan;99489.38;5038227;28;20387;-71
2023/12/23 11:36:26;;;;;;;4.97;2.60;;;;;;;4.17;nan;99485.38;5038508;28;20025;-71
2023/12/23 11:38:52;;;;;;;3.75;1.80;;;;;;;4.10;nan;99487.19;5041161;28;20099;-72
2023/12/23 11:41:19;;;;;;;2.90;1.50;;;;;;;3.97;nan;99449.72;5042030;28;20116;-69
2023/12/23 11:43:46;;;;;;;3.10;1.75;;;;;;;3.91;nan;99463.59;5064725;28;20028;-71
2023/12/23 11:46:13;;;;;;;6.00;1.70;;;;;;;3.97;nan;99474.97;5065925;28;20029;-70
2023/12/23 11:48:38;;;;;;;3.63;1.98;;;;;;;3.92;nan;99488.63;5064855;28;20051;-71
2023/12/23 11:51:06;;;;;;;6.15;2.08;;;;;;;3.90;nan;99474.19;5062446;28;20037;-72
2023/12/23 11:53:33;;;;;;;4.05;1.73;;;;;;;3.82;nan;99489.03;5062865;28;20045;-71